sensor_id;sensor_type;location;lat;lon;timestamp;pressure;altitude;pressure_sealevel;temperature;humidity
31096;BME280;17749;51.962;8.560;2024-02-14T06:03:23;99935.56;;;7.39;100.00
31096;BME280;17749;51.962;8.560;2024-02-14T06:05:59;99934.69;;;7.39;100.00
31096;BME280;17749;51.962;8.560;2024-02-14T06:08:26;99936.44;;;7.38;100.00
31096;BME280;17749;51.962;8.560;2024-02-14T06:10:56;99949.56;;;7.43;100.00
31096;BME280;17749;51.962;8.560;2024-02-14T06:13:23;99953.06;;;7.43;100.00
31096;BME280;17749;51.962;8.560;2024-02-14T06:15:51;99951.25;;;7.45;100.00
31096;BME280;17749;51.962;8.560;2024-02-14T06:18:24;99950.34;;;7.46;100.00
31096;BME280;17749;51.962;8.560;2024-02-14T06:20:51;99954.66;;;7.51;100.00
31096;BME280;17749;51.962;8.560;2024-02-14T06:23:19;99958.22;;;7.50;100.00
31096;BME280;17749;51.962;8.560;2024-02-14T06:25:48;99958.97;;;7.53;100.00
31096;BME280;17749;51.962;8.560;2024-02-14T06:28:14;99959.94;;;7.51;100.00
31096;BME280;17749;51.962;8.560;2024-02-14T06:30:46;99963.41;;;7.53;100.00
31096;BME280;17749;51.962;8.560;2024-02-14T06:33:13;99966.97;;;7.52;100.00
31096;BME280;17749;51.962;8.560;2024-02-14T06:35:44;99968.63;;;7.56;100.00
31096;BME280;17749;51.962;8.560;2024-02-14T06:38:11;99970.34;;;7.57;100.00
31096;BME280;17749;51.962;8.560;2024-02-14T06:40:38;99978.22;;;7.60;100.00
31096;BME280;17749;51.962;8.560;2024-02-14T06:43:08;99979.13;;;7.59;100.00
31096;BME280;17749;51.962;8.560;2024-02-14T06:45:35;99980.94;;;7.57;100.00
31096;BME280;17749;51.962;8.560;2024-02-14T06:48:02;99973.00;;;7.57;100.00
31096;BME280;17749;51.962;8.560;2024-02-14T06:50:29;99984.53;;;7.56;100.00
31096;BME280;17749;51.962;8.560;2024-02-14T06:52:57;99994.94;;;7.62;100.00
31096;BME280;17749;51.962;8.560;2024-02-14T06:55:27;100001.88;;;7.66;100.00
31096;BME280;17749;51.962;8.560;2024-02-14T06:57:59;99988.56;;;7.67;100.00
31096;BME280;17749;51.962;8.560;2024-02-14T07:00:29;99991.94;;;7.73;100.00
31096;BME280;17749;51.962;8.560;2024-02-14T07:02:56;99999.91;;;7.73;100.00
31096;BME280;17749;51.962;8.560;2024-02-14T07:05:23;99998.09;;;7.75;100.00
31096;BME280;17749;51.962;8.560;2024-02-14T07:07:51;100004.25;;;7.75;100.00
31096;BME280;17749;51.962;8.560;2024-02-14T07:10:18;100004.19;;;7.78;100.00
31096;BME280;17749;51.962;8.560;2024-02-14T07:12:45;100008.56;;;7.79;100.00
31096;BME280;17749;51.962;8.560;2024-02-14T07:15:12;99996.22;;;7.78;100.00
31096;BME280;17749;51.962;8.560;2024-02-14T07:17:47;100006.75;;;7.81;100.00
31096;BME280;17749;51.962;8.560;2024-02-14T07:20:14;100008.38;;;7.85;100.00
31096;BME280;17749;51.962;8.560;2024-02-14T07:22:54;100013.56;;;7.88;100.00
31096;BME280;17749;51.962;8.560;2024-02-14T07:25:23;100018.88;;;7.88;100.00
31096;BME280;17749;51.962;8.560;2024-02-14T07:27:51;100013.56;;;7.88;100.00
31096;BME280;17749;51.962;8.560;2024-02-14T07:30:26;100014.38;;;7.92;100.00
31096;BME280;17749;51.962;8.560;2024-02-14T07:32:54;100016.00;;;7.96;100.00
31096;BME280;17749;51.962;8.560;2024-02-14T07:35:20;100022.00;;;8.01;100.00
31096;BME280;17749;51.962;8.560;2024-02-14T07:37:47;100023.78;;;8.02;100.00
31096;BME280;17749;51.962;8.560;2024-02-14T07:40:15;100022.81;;;8.05;100.00
31096;BME280;17749;51.962;8.560;2024-02-14T07:42:44;100025.38;;;8.08;100.00
31096;BME280;17749;51.962;8.560;2024-02-14T07:45:11;100027.88;;;8.12;100.00
31096;BME280;17749;51.962;8.560;2024-02-14T07:47:38;100037.53;;;8.15;100.00
31096;BME280;17749;51.962;8.560;2024-02-14T07:50:07;100032.22;;;8.15;100.00
31096;BME280;17749;51.962;8.560;2024-02-14T07:52:34;100032.22;;;8.15;100.00
31096;BME280;17749;51.962;8.560;2024-02-14T07:55:03;100045.47;;;8.15;100.00
31096;BME280;17749;51.962;8.560;2024-02-14T07:57:29;100039.25;;;8.16;100.00
31096;BME280;17749;51.962;8.560;2024-02-14T07:59:56;100042.72;;;8.18;100.00
31096;BME280;17749;51.962;8.560;2024-02-14T08:02:23;100047.94;;;8.21;100.00
31096;BME280;17749;51.962;8.560;2024-02-14T08:04:50;100047.00;;;8.22;100.00
31096;BME280;17749;51.962;8.560;2024-02-14T08:07:18;100055.75;;;8.26;100.00
31096;BME280;17749;51.962;8.560;2024-02-14T08:09:46;100050.38;;;8.27;100.00
31096;BME280;17749;51.962;8.560;2024-02-14T08:12:12;100053.94;;;8.28;100.00
31096;BME280;17749;51.962;8.560;2024-02-14T08:14:39;100060.09;;;8.28;100.00
31096;BME280;17749;51.962;8.560;2024-02-14T08:17:06;100049.38;;;8.31;100.00
31096;BME280;17749;51.962;8.560;2024-02-14T08:19:33;100053.75;;;8.32;100.00
31096;BME280;17749;51.962;8.560;2024-02-14T08:21:59;100052.88;;;8.33;100.00
31096;BME280;17749;51.962;8.560;2024-02-14T08:24:27;100050.22;;;8.33;100.00
31096;BME280;17749;51.962;8.560;2024-02-14T08:26:54;100057.19;;;8.36;100.00
31096;BME280;17749;51.962;8.560;2024-02-14T08:29:21;100059.78;;;8.38;100.00
31096;BME280;17749;51.962;8.560;2024-02-14T08:31:49;100063.31;;;8.40;100.00
31096;BME280;17749;51.962;8.560;2024-02-14T08:34:16;100061.47;;;8.42;100.00
31096;BME280;17749;51.962;8.560;2024-02-14T08:36:43;100063.19;;;8.43;100.00
31096;BME280;17749;51.962;8.560;2024-02-14T08:39:10;100071.13;;;8.44;100.00
31096;BME280;17749;51.962;8.560;2024-02-14T08:41:38;100063.09;;;8.46;100.00
31096;BME280;17749;51.962;8.560;2024-02-14T08:44:05;100055.19;;;8.44;100.00
31096;BME280;17749;51.962;8.560;2024-02-14T08:46:32;100065.72;;;8.47;100.00
31096;BME280;17749;51.962;8.560;2024-02-14T08:49:02;100063.09;;;8.46;100.00
31096;BME280;17749;51.962;8.560;2024-02-14T08:51:29;100070.06;;;8.50;100.00
31096;BME280;17749;51.962;8.560;2024-02-14T08:53:56;100068.34;;;8.49;100.00
31096;BME280;17749;51.962;8.560;2024-02-14T08:56:26;100068.22;;;8.52;100.00
31096;BME280;17749;51.962;8.560;2024-02-14T08:58:54;100073.44;;;8.55;100.00
31096;BME280;17749;51.962;8.560;2024-02-14T09:01:21;100071.59;;;8.57;100.00
31096;BME280;17749;51.962;8.560;2024-02-14T09:03:48;100071.50;;;8.60;100.00
31096;BME280;17749;51.962;8.560;2024-02-14T09:06:17;100074.97;;;8.62;100.00
31096;BME280;17749;51.962;8.560;2024-02-14T09:08:49;100072.25;;;8.64;100.00
31096;BME280;17749;51.962;8.560;2024-02-14T09:11:17;100078.34;;;8.67;100.00
31096;BME280;17749;51.962;8.560;2024-02-14T09:13:44;100068.59;;;8.68;100.00
31096;BME280;17749;51.962;8.560;2024-02-14T09:16:14;100068.53;;;8.69;100.00
31096;BME280;17749;51.962;8.560;2024-02-14T09:18:47;100075.59;;;8.70;100.00
31096;BME280;17749;51.962;8.560;2024-02-14T09:21:13;100080.91;;;8.70;100.00
31096;BME280;17749;51.962;8.560;2024-02-14T09:23:44;100079.00;;;8.74;100.00
31096;BME280;17749;51.962;8.560;2024-02-14T09:26:11;100084.16;;;8.78;100.00
31096;BME280;17749;51.962;8.560;2024-02-14T09:28:42;100078.78;;;8.80;100.00
31096;BME280;17749;51.962;8.560;2024-02-14T09:31:09;100077.81;;;8.83;100.00
31096;BME280;17749;51.962;8.560;2024-02-14T09:33:38;100079.56;;;8.84;100.00
31096;BME280;17749;51.962;8.560;2024-02-14T09:36:06;100079.56;;;8.84;100.00
31096;BME280;17749;51.962;8.560;2024-02-14T09:38:34;100077.94;;;8.80;100.00
31096;BME280;17749;51.962;8.560;2024-02-14T09:41:35;100088.50;;;8.81;100.00
31096;BME280;17749;51.962;8.560;2024-02-14T09:44:03;100083.25;;;8.80;100.00
31096;BME280;17749;51.962;8.560;2024-02-14T09:46:31;100085.78;;;8.83;100.00
31096;BME280;17749;51.962;8.560;2024-02-14T09:49:03;100083.06;;;8.86;100.00
31096;BME280;17749;51.962;8.560;2024-02-14T09:51:31;100084.88;;;8.84;100.00
31096;BME280;17749;51.962;8.560;2024-02-14T09:54:00;100088.38;;;8.86;100.00
31096;BME280;17749;51.962;8.560;2024-02-14T09:56:30;100090.09;;;8.87;100.00
31096;BME280;17749;51.962;8.560;2024-02-14T09:58:59;100089.09;;;8.91;100.00
31096;BME280;17749;51.962;8.560;2024-02-14T10:01:29;100088.25;;;8.89;100.00
31096;BME280;17749;51.962;8.560;2024-02-14T10:03:56;100089.13;;;8.89;100.00
31096;BME280;17749;51.962;8.560;2024-02-14T10:06:22;100099.72;;;8.91;100.00
31096;BME280;17749;51.962;8.560;2024-02-14T10:08:50;100097.06;;;8.91;100.00
31096;BME280;17749;51.962;8.560;2024-02-14T10:11:32;100097.84;;;8.93;100.00
31096;BME280;17749;51.962;8.560;2024-02-14T10:14:00;100107.50;;;8.95;100.00
31096;BME280;17749;51.962;8.560;2024-02-14T10:16:31;100110.94;;;8.99;100.00
31096;BME280;17749;51.962;8.560;2024-02-14T10:18:58;100111.66;;;9.04;100.00
31096;BME280;17749;51.962;8.560;2024-02-14T10:21:26;100115.06;;;9.08;100.00
31096;BME280;17749;51.962;8.560;2024-02-14T10:23:55;100108.78;;;9.10;100.00
31096;BME280;17749;51.962;8.560;2024-02-14T10:26:24;100113.97;;;9.13;100.00
31096;BME280;17749;51.962;8.560;2024-02-14T10:28:51;100108.56;;;9.16;100.00
31096;BME280;17749;51.962;8.560;2024-02-14T10:31:18;100113.72;;;9.21;100.00
31096;BME280;17749;51.962;8.560;2024-02-14T10:33:45;100116.94;;;9.31;100.00
31096;BME280;17749;51.962;8.560;2024-02-14T10:36:12;100115.75;;;9.39;100.00
31096;BME280;17749;51.962;8.560;2024-02-14T10:38:41;100106.75;;;9.43;100.00
31096;BME280;17749;51.962;8.560;2024-02-14T10:41:09;100116.41;;;9.46;100.00
31096;BME280;17749;51.962;8.560;2024-02-14T10:43:36;100110.91;;;9.51;100.00
31096;BME280;17749;51.962;8.560;2024-02-14T10:46:08;100105.44;;;9.55;100.00
31096;BME280;17749;51.962;8.560;2024-02-14T10:48:37;100110.59;;;9.60;100.00
31096;BME280;17749;51.962;8.560;2024-02-14T10:51:05;100119.31;;;9.63;100.00
31096;BME280;17749;51.962;8.560;2024-02-14T10:53:34;100121.06;;;9.64;100.00
31096;BME280;17749;51.962;8.560;2024-02-14T10:56:02;100119.03;;;9.71;100.00
31096;BME280;17749;51.962;8.560;2024-02-14T10:58:30;100124.31;;;9.73;100.00
31096;BME280;17749;51.962;8.560;2024-02-14T11:00:59;100128.50;;;9.80;100.00
31096;BME280;17749;51.962;8.560;2024-02-14T11:03:26;100119.56;;;9.81;100.00
31096;BME280;17749;51.962;8.560;2024-02-14T11:06:01;100119.53;;;9.82;100.00
31096;BME280;17749;51.962;8.560;2024-02-14T11:08:31;100118.66;;;9.82;100.00
31096;BME280;17749;51.962;8.560;2024-02-14T11:11:00;100125.88;;;9.78;100.00
31096;BME280;17749;51.962;8.560;2024-02-14T11:13:30;100118.75;;;9.79;100.00
31096;BME280;17749;51.962;8.560;2024-02-14T11:16:00;100109.88;;;9.80;100.00
31096;BME280;17749;51.962;8.560;2024-02-14T11:18:28;100104.56;;;9.80;100.00
31096;BME280;17749;51.962;8.560;2024-02-14T11:21:04;100113.44;;;9.79;100.00
31096;BME280;17749;51.962;8.560;2024-02-14T11:23:32;100117.03;;;9.78;100.00
31096;BME280;17749;51.962;8.560;2024-02-14T11:26:05;100121.41;;;9.79;100.00
31096;BME280;17749;51.962;8.560;2024-02-14T11:28:37;100113.56;;;9.76;100.00
31096;BME280;17749;51.962;8.560;2024-02-14T11:31:08;100128.66;;;9.75;100.00
31096;BME280;17749;51.962;8.560;2024-02-14T11:33:36;100132.22;;;9.74;100.00
31096;BME280;17749;51.962;8.560;2024-02-14T11:36:10;100126.97;;;9.73;100.00
31096;BME280;17749;51.962;8.560;2024-02-14T11:38:40;100126.03;;;9.74;100.00
31096;BME280;17749;51.962;8.560;2024-02-14T11:41:07;100132.19;;;9.76;100.00
31096;BME280;17749;51.962;8.560;2024-02-14T11:43:35;100130.34;;;9.78;100.00
31096;BME280;17749;51.962;8.560;2024-02-14T11:46:02;100137.22;;;9.83;100.00
31096;BME280;17749;51.962;8.560;2024-02-14T11:48:31;100131.16;;;9.80;100.00
31096;BME280;17749;51.962;8.560;2024-02-14T11:50:59;100129.28;;;9.82;100.00
31096;BME280;17749;51.962;8.560;2024-02-14T11:53:26;100132.88;;;9.81;100.00
31096;BME280;17749;51.962;8.560;2024-02-14T11:55:55;100131.16;;;9.80;100.00
31096;BME280;17749;51.962;8.560;2024-02-14T11:58:23;100132.84;;;9.82;100.00
31096;BME280;17749;51.962;8.560;2024-02-14T12:00:50;100131.16;;;9.80;100.00
31096;BME280;17749;51.962;8.560;2024-02-14T12:03:22;100139.91;;;9.82;100.00
31096;BME280;17749;51.962;8.560;2024-02-14T12:05:51;100137.38;;;9.79;100.00
31096;BME280;17749;51.962;8.560;2024-02-14T12:08:20;100140.03;;;9.79;100.00
31096;BME280;17749;51.962;8.560;2024-02-14T12:10:48;100139.91;;;9.82;100.00
31096;BME280;17749;51.962;8.560;2024-02-14T12:13:20;100133.50;;;9.87;100.00
31096;BME280;17749;51.962;8.560;2024-02-14T12:15:50;100139.59;;;9.91;100.00
31096;BME280;17749;51.962;8.560;2024-02-14T12:18:19;100138.75;;;9.91;100.00
31096;BME280;17749;51.962;8.560;2024-02-14T12:20:47;100147.59;;;9.91;100.00
31096;BME280;17749;51.962;8.560;2024-02-14T12:23:22;100149.31;;;9.92;100.00
31096;BME280;17749;51.962;8.560;2024-02-14T12:25:50;100136.00;;;9.92;100.00
31096;BME280;17749;51.962;8.560;2024-02-14T12:28:18;100140.41;;;9.93;100.00
31096;BME280;17749;51.962;8.560;2024-02-14T12:30:47;100131.63;;;9.91;100.00
31096;BME280;17749;51.962;8.560;2024-02-14T12:33:16;100138.75;;;9.91;100.00
31096;BME280;17749;51.962;8.560;2024-02-14T12:35:47;100156.47;;;9.90;100.00
31096;BME280;17749;51.962;8.560;2024-02-14T12:38:16;100146.72;;;9.91;100.00
31096;BME280;17749;51.962;8.560;2024-02-14T12:40:43;100144.91;;;9.91;100.00
31096;BME280;17749;51.962;8.560;2024-02-14T12:43:15;100148.59;;;9.87;100.00
31096;BME280;17749;51.962;8.560;2024-02-14T12:45:45;100155.75;;;9.85;100.00
31096;BME280;17749;51.962;8.560;2024-02-14T12:48:13;100155.75;;;9.85;100.00
31096;BME280;17749;51.962;8.560;2024-02-14T12:50:41;100150.44;;;9.85;100.00
31096;BME280;17749;51.962;8.560;2024-02-14T12:53:15;100149.53;;;9.86;100.00
31096;BME280;17749;51.962;8.560;2024-02-14T12:55:43;100148.72;;;9.84;100.00
31096;BME280;17749;51.962;8.560;2024-02-14T12:58:10;100148.59;;;9.87;100.00
31096;BME280;17749;51.962;8.560;2024-02-14T13:00:37;100141.44;;;9.89;100.00
31096;BME280;17749;51.962;8.560;2024-02-14T13:03:04;100142.38;;;9.88;100.00
31096;BME280;17749;51.962;8.560;2024-02-14T13:05:32;100151.97;;;9.92;100.00
31096;BME280;17749;51.962;8.560;2024-02-14T13:08:00;100134.97;;;9.96;100.00
31096;BME280;17749;51.962;8.560;2024-02-14T13:10:28;100136.69;;;9.97;100.00
31096;BME280;17749;51.962;8.560;2024-02-14T13:12:56;100138.34;;;10.01;100.00
31096;BME280;17749;51.962;8.560;2024-02-14T13:15:26;100137.41;;;10.02;100.00
31096;BME280;17749;51.962;8.560;2024-02-14T13:17:54;100140.06;;;10.02;100.00
31096;BME280;17749;51.962;8.560;2024-02-14T13:20:21;100141.00;;;10.01;100.00
31096;BME280;17749;51.962;8.560;2024-02-14T13:22:49;100139.03;;;10.06;100.00
31096;BME280;17749;51.962;8.560;2024-02-14T13:25:16;100135.47;;;10.06;100.00
31096;BME280;17749;51.962;8.560;2024-02-14T13:27:44;100137.28;;;10.05;100.00
31096;BME280;17749;51.962;8.560;2024-02-14T13:30:11;100132.81;;;10.06;100.00
31096;BME280;17749;51.962;8.560;2024-02-14T13:32:39;100129.25;;;10.07;100.00
31096;BME280;17749;51.962;8.560;2024-02-14T13:35:06;100131.75;;;10.12;100.00
31096;BME280;17749;51.962;8.560;2024-02-14T13:37:33;100133.34;;;10.16;100.00
31096;BME280;17749;51.962;8.560;2024-02-14T13:40:02;100128.88;;;10.16;100.00
31096;BME280;17749;51.962;8.560;2024-02-14T13:42:31;100134.97;;;10.20;100.00
31096;BME280;17749;51.962;8.560;2024-02-14T13:44:58;100141.00;;;10.25;100.00
31096;BME280;17749;51.962;8.560;2024-02-14T13:47:25;100133.78;;;10.27;100.00
31096;BME280;17749;51.962;8.560;2024-02-14T13:49:52;100130.19;;;10.29;100.00
31096;BME280;17749;51.962;8.560;2024-02-14T13:52:19;100117.69;;;10.31;100.00
31096;BME280;17749;51.962;8.560;2024-02-14T13:54:47;100125.50;;;10.36;100.00
31096;BME280;17749;51.962;8.560;2024-02-14T13:57:15;100119.03;;;10.43;100.00
31096;BME280;17749;51.962;8.560;2024-02-14T13:59:45;100114.50;;;10.45;100.00
31096;BME280;17749;51.962;8.560;2024-02-14T14:02:13;100116.94;;;10.51;100.00
31096;BME280;17749;51.962;8.560;2024-02-14T14:04:41;100116.78;;;10.55;100.00
31096;BME280;17749;51.962;8.560;2024-02-14T14:07:07;100130.06;;;10.56;100.00
31096;BME280;17749;51.962;8.560;2024-02-14T14:09:35;100126.41;;;10.59;100.00
31096;BME280;17749;51.962;8.560;2024-02-14T14:12:02;100122.69;;;10.63;100.00
31096;BME280;17749;51.962;8.560;2024-02-14T14:14:29;100118.28;;;10.62;100.00
31096;BME280;17749;51.962;8.560;2024-02-14T14:16:57;100121.00;;;10.60;100.00
31096;BME280;17749;51.962;8.560;2024-02-14T14:19:24;100118.47;;;10.57;100.00
31096;BME280;17749;51.962;8.560;2024-02-14T14:21:52;100116.63;;;10.59;100.00
31096;BME280;17749;51.962;8.560;2024-02-14T14:24:18;100122.81;;;10.60;100.00
31096;BME280;17749;51.962;8.560;2024-02-14T14:26:46;100116.50;;;10.62;100.00
31096;BME280;17749;51.962;8.560;2024-02-14T14:29:13;100121.69;;;10.65;100.00
31096;BME280;17749;51.962;8.560;2024-02-14T14:31:40;100120.81;;;10.65;100.00
31096;BME280;17749;51.962;8.560;2024-02-14T14:34:08;100121.69;;;10.65;100.00
31096;BME280;17749;51.962;8.560;2024-02-14T14:36:35;100125.97;;;10.69;100.00
31096;BME280;17749;51.962;8.560;2024-02-14T14:39:04;100118.00;;;10.69;100.00
31096;BME280;17749;51.962;8.560;2024-02-14T14:41:31;100120.66;;;10.69;100.00
31096;BME280;17749;51.962;8.560;2024-02-14T14:43:58;100115.19;;;10.72;100.00
31096;BME280;17749;51.962;8.560;2024-02-14T14:46:25;100118.72;;;10.73;100.00
31096;BME280;17749;51.962;8.560;2024-02-14T14:48:52;100117.84;;;10.72;100.00
31096;BME280;17749;51.962;8.560;2024-02-14T14:51:20;100127.56;;;10.73;100.00
31096;BME280;17749;51.962;8.560;2024-02-14T14:53:47;100113.41;;;10.73;100.00
31096;BME280;17749;51.962;8.560;2024-02-14T14:56:14;100112.44;;;10.74;100.00
31096;BME280;17749;51.962;8.560;2024-02-14T14:58:41;100114.13;;;10.77;100.00
31096;BME280;17749;51.962;8.560;2024-02-14T15:01:09;100115.88;;;10.78;100.00
31096;BME280;17749;51.962;8.560;2024-02-14T15:03:36;100108.88;;;10.75;100.00
31096;BME280;17749;51.962;8.560;2024-02-14T15:06:04;100120.34;;;10.77;100.00
31096;BME280;17749;51.962;8.560;2024-02-14T15:08:31;100114.94;;;10.79;100.00
31096;BME280;17749;51.962;8.560;2024-02-14T15:10:59;100120.22;;;10.80;100.00
31096;BME280;17749;51.962;8.560;2024-02-14T15:13:26;100122.06;;;10.78;100.00
31096;BME280;17749;51.962;8.560;2024-02-14T15:15:54;100125.53;;;10.80;100.00
31096;BME280;17749;51.962;8.560;2024-02-14T15:18:21;100118.34;;;10.82;100.00
31096;BME280;17749;51.962;8.560;2024-02-14T15:20:48;100116.59;;;10.81;100.00
31096;BME280;17749;51.962;8.560;2024-02-14T15:23:15;100120.22;;;10.80;100.00
31096;BME280;17749;51.962;8.560;2024-02-14T15:25:42;100125.53;;;10.80;100.00
31096;BME280;17749;51.962;8.560;2024-02-14T15:28:10;100118.47;;;10.79;100.00
31096;BME280;17749;51.962;8.560;2024-02-14T15:30:44;100128.44;;;10.74;100.00
31096;BME280;17749;51.962;8.560;2024-02-14T15:33:30;100126.75;;;10.71;100.00
31096;BME280;17749;51.962;8.560;2024-02-14T15:35:58;100118.97;;;10.67;100.00
31096;BME280;17749;51.962;8.560;2024-02-14T15:38:28;100118.97;;;10.67;100.00
31096;BME280;17749;51.962;8.560;2024-02-14T15:40:55;100120.97;;;10.62;100.00
31096;BME280;17749;51.962;8.560;2024-02-14T15:43:28;100124.66;;;10.58;100.00
31096;BME280;17749;51.962;8.560;2024-02-14T15:45:56;100122.94;;;10.57;100.00
31096;BME280;17749;51.962;8.560;2024-02-14T15:48:24;100132.66;;;10.58;100.00
31096;BME280;17749;51.962;8.560;2024-02-14T15:50:53;100128.38;;;10.53;100.00
31096;BME280;17749;51.962;8.560;2024-02-14T15:53:21;100136.41;;;10.52;100.00
31096;BME280;17749;51.962;8.560;2024-02-14T15:55:48;100132.91;;;10.51;100.00
31096;BME280;17749;51.962;8.560;2024-02-14T15:58:18;100128.38;;;10.53;100.00
31096;BME280;17749;51.962;8.560;2024-02-14T16:00:45;100124.84;;;10.53;100.00
31096;BME280;17749;51.962;8.560;2024-02-14T16:03:12;100121.31;;;10.52;100.00
31096;BME280;17749;51.962;8.560;2024-02-14T16:05:39;100117.72;;;10.53;100.00
31096;BME280;17749;51.962;8.560;2024-02-14T16:08:07;100118.59;;;10.54;100.00
31096;BME280;17749;51.962;8.560;2024-02-14T16:10:34;100121.44;;;10.49;100.00
31096;BME280;17749;51.962;8.560;2024-02-14T16:13:01;100117.09;;;10.47;100.00
31096;BME280;17749;51.962;8.560;2024-02-14T16:15:29;100118.16;;;10.43;100.00
31096;BME280;17749;51.962;8.560;2024-02-14T16:17:56;100125.38;;;10.39;100.00
31096;BME280;17749;51.962;8.560;2024-02-14T16:20:24;100125.50;;;10.36;100.00
31096;BME280;17749;51.962;8.560;2024-02-14T16:22:51;100129.09;;;10.35;100.00
31096;BME280;17749;51.962;8.560;2024-02-14T16:25:18;100125.69;;;10.31;100.00
31096;BME280;17749;51.962;8.560;2024-02-14T16:27:46;100126.53;;;10.32;100.00
31096;BME280;17749;51.962;8.560;2024-02-14T16:30:14;100132.81;;;10.31;100.00
31096;BME280;17749;51.962;8.560;2024-02-14T16:32:42;100134.75;;;10.26;100.00
31096;BME280;17749;51.962;8.560;2024-02-14T16:35:11;100125.75;;;10.30;100.00
31096;BME280;17749;51.962;8.560;2024-02-14T16:37:38;100129.28;;;10.30;100.00
31096;BME280;17749;51.962;8.560;2024-02-14T16:40:06;100133.75;;;10.30;100.00
31096;BME280;17749;51.962;8.560;2024-02-14T16:42:34;100129.41;;;10.26;100.00
31096;BME280;17749;51.962;8.560;2024-02-14T16:45:01;100128.56;;;10.25;100.00
31096;BME280;17749;51.962;8.560;2024-02-14T16:47:30;100127.69;;;10.25;100.00
31096;BME280;17749;51.962;8.560;2024-02-14T16:49:58;100134.75;;;10.26;100.00
31096;BME280;17749;51.962;8.560;2024-02-14T16:52:26;100137.41;;;10.26;100.00
31096;BME280;17749;51.962;8.560;2024-02-14T16:54:53;100138.47;;;10.22;100.00
31096;BME280;17749;51.962;8.560;2024-02-14T16:57:20;100134.16;;;10.18;100.00
31096;BME280;17749;51.962;8.560;2024-02-14T16:59:47;100127.22;;;10.14;100.00
31096;BME280;17749;51.962;8.560;2024-02-14T17:02:15;100132.66;;;10.10;100.00
31096;BME280;17749;51.962;8.560;2024-02-14T17:04:42;100130.00;;;10.10;100.00
31096;BME280;17749;51.962;8.560;2024-02-14T17:07:10;100135.31;;;10.10;100.00
31096;BME280;17749;51.962;8.560;2024-02-14T17:09:43;100135.31;;;10.10;100.00
31096;BME280;17749;51.962;8.560;2024-02-14T17:12:12;100133.59;;;10.09;100.00
31096;BME280;17749;51.962;8.560;2024-02-14T17:14:39;100130.97;;;10.08;100.00
31096;BME280;17749;51.962;8.560;2024-02-14T17:17:10;100132.78;;;10.07;100.00
31096;BME280;17749;51.962;8.560;2024-02-14T17:19:37;100126.63;;;10.05;100.00
31096;BME280;17749;51.962;8.560;2024-02-14T17:22:04;100130.25;;;10.04;100.00
31096;BME280;17749;51.962;8.560;2024-02-14T17:24:46;100136.41;;;10.05;100.00
31096;BME280;17749;51.962;8.560;2024-02-14T17:27:15;100133.84;;;10.03;100.00
31096;BME280;17749;51.962;8.560;2024-02-14T17:29:45;100130.47;;;9.98;100.00
31096;BME280;17749;51.962;8.560;2024-02-14T17:32:14;100130.47;;;9.98;100.00
31096;BME280;17749;51.962;8.560;2024-02-14T17:34:57;100130.47;;;9.98;100.00
31096;BME280;17749;51.962;8.560;2024-02-14T17:37:26;100136.59;;;10.00;100.00
31096;BME280;17749;51.962;8.560;2024-02-14T17:39:54;100133.84;;;10.03;100.00
31096;BME280;17749;51.962;8.560;2024-02-14T17:42:21;100143.59;;;10.03;100.00
31096;BME280;17749;51.962;8.560;2024-02-14T17:44:48;100138.25;;;10.03;100.00
31096;BME280;17749;51.962;8.560;2024-02-14T17:47:16;100138.38;;;10.00;100.00
31096;BME280;17749;51.962;8.560;2024-02-14T17:49:44;100150.69;;;10.02;100.00
31096;BME280;17749;51.962;8.560;2024-02-14T17:52:12;100150.78;;;10.01;100.00
31096;BME280;17749;51.962;8.560;2024-02-14T17:54:46;100137.41;;;10.02;100.00
31096;BME280;17749;51.962;8.560;2024-02-14T17:57:14;100145.38;;;10.02;100.00
31096;BME280;17749;51.962;8.560;2024-02-14T17:59:43;100143.53;;;10.04;100.00
31096;BME280;17749;51.962;8.560;2024-02-14T18:02:11;100155.13;;;10.03;100.00
31096;BME280;17749;51.962;8.560;2024-02-14T18:04:38;100153.25;;;10.05;100.00
31096;BME280;17749;51.962;8.560;2024-02-14T18:07:06;100151.41;;;10.07;100.00
31096;BME280;17749;51.962;8.560;2024-02-14T18:09:33;100149.56;;;10.09;100.00
31096;BME280;17749;51.962;8.560;2024-02-14T18:12:00;100160.19;;;10.09;100.00
31096;BME280;17749;51.962;8.560;2024-02-14T18:14:31;100149.59;;;10.08;100.00
31096;BME280;17749;51.962;8.560;2024-02-14T18:16:59;100156.72;;;10.07;100.00
31096;BME280;17749;51.962;8.560;2024-02-14T18:19:26;100155.88;;;10.07;100.00
31096;BME280;17749;51.962;8.560;2024-02-14T18:21:53;100156.59;;;10.10;100.00
31096;BME280;17749;51.962;8.560;2024-02-14T18:24:20;100162.03;;;10.07;100.00
31096;BME280;17749;51.962;8.560;2024-02-14T18:26:48;100160.19;;;10.09;100.00
31096;BME280;17749;51.962;8.560;2024-02-14T18:29:15;100166.25;;;10.13;100.00
31096;BME280;17749;51.962;8.560;2024-02-14T18:31:42;100160.13;;;10.11;100.00
31096;BME280;17749;51.962;8.560;2024-02-14T18:34:09;100161.06;;;10.10;100.00
31096;BME280;17749;51.962;8.560;2024-02-14T18:36:37;100163.69;;;10.12;100.00
31096;BME280;17749;51.962;8.560;2024-02-14T18:39:04;100161.03;;;10.12;100.00
31096;BME280;17749;51.962;8.560;2024-02-14T18:41:31;100163.75;;;10.08;100.00
31096;BME280;17749;51.962;8.560;2024-02-14T18:44:01;100165.53;;;10.09;100.00
31096;BME280;17749;51.962;8.560;2024-02-14T18:46:30;100170.84;;;10.09;100.00
31096;BME280;17749;51.962;8.560;2024-02-14T18:48:58;100165.53;;;10.09;100.00
31096;BME280;17749;51.962;8.560;2024-02-14T18:51:26;100163.59;;;10.13;100.00
31096;BME280;17749;51.962;8.560;2024-02-14T18:53:53;100165.41;;;10.13;100.00